Time;durP1;ratioP1;P1;durP2;ratioP2;P2;SDS_P1;SDS_P2;PMS_P1;PMS_P2;Temp;Humidity;BMP_temperature;BMP_pressure;BME280_temperature;BME280_humidity;BME280_pressure;Samples;Min_cycle;Max_cycle;Signal;HPM_P1;HPM_P2
2022/04/30 00:01:26;;;;;;;14.88;10.27;;;10.30;34.10;;;;;;4995046;28;34250;-75
2022/04/30 00:03:52;;;;;;;15.45;10.10;;;10.20;34.00;;;;;;4998359;28;35836;-75
2022/04/30 00:06:19;;;;;;;16.15;10.40;;;10.10;34.10;;;;;;4994445;28;34346;-76
2022/04/30 00:08:45;;;;;;;14.05;10.25;;;10.00;34.10;;;;;;4998380;28;34315;-75
2022/04/30 00:11:11;;;;;;;14.57;10.65;;;10.00;34.20;;;;;;4986669;28;34244;-75
2022/04/30 00:13:37;;;;;;;14.90;10.60;;;9.90;34.30;;;;;;5003599;28;35433;-75
2022/04/30 00:16:03;;;;;;;13.73;10.15;;;9.80;34.30;;;;;;4997644;28;34399;-75
2022/04/30 00:18:29;;;;;;;15.57;9.60;;;9.80;34.40;;;;;;4976811;28;34175;-75
2022/04/30 00:20:58;;;;;;;15.25;10.40;;;9.70;34.50;;;;;;4996894;28;34599;-75
2022/04/30 00:23:26;;;;;;;14.20;10.20;;;9.60;34.60;;;;;;4999148;28;35705;-75
2022/04/30 00:25:56;;;;;;;13.82;10.00;;;9.60;34.90;;;;;;4979062;28;34273;-75
2022/04/30 00:28:26;;;;;;;15.52;9.93;;;9.50;35.10;;;;;;4995746;28;34421;-75
2022/04/30 00:30:54;;;;;;;14.65;9.85;;;9.40;34.90;;;;;;4982950;28;34230;-75
2022/04/30 00:33:20;;;;;;;15.43;10.43;;;9.40;34.80;;;;;;5001578;28;35893;-75
2022/04/30 00:35:46;;;;;;;15.52;9.35;;;9.40;34.90;;;;;;5001494;28;34509;-75
2022/04/30 00:38:14;;;;;;;14.00;9.85;;;9.30;34.90;;;;;;5003312;28;34431;-75
2022/04/30 00:40:43;;;;;;;13.75;9.85;;;9.30;35.00;;;;;;5000942;28;34351;-75
2022/04/30 00:43:08;;;;;;;13.38;9.93;;;9.20;35.30;;;;;;4994736;28;36873;-76
2022/04/30 00:45:34;;;;;;;16.15;10.48;;;9.20;35.10;;;;;;4984642;28;34405;-76
2022/04/30 00:48:00;;;;;;;15.85;10.38;;;9.20;35.50;;;;;;4963936;28;34142;-75
2022/04/30 00:50:29;;;;;;;14.30;10.32;;;9.10;35.40;;;;;;4974457;28;34233;-75
2022/04/30 00:52:57;;;;;;;15.65;9.80;;;9.10;35.80;;;;;;4967657;28;36687;-75
2022/04/30 00:55:28;;;;;;;15.85;10.38;;;9.00;35.70;;;;;;4995646;28;34052;-75
2022/04/30 00:57:58;;;;;;;14.70;9.65;;;9.00;35.70;;;;;;4984639;28;34266;-75
2022/04/30 01:00:26;;;;;;;16.25;11.10;;;9.00;35.50;;;;;;4999021;28;34284;-75
2022/04/30 01:02:52;;;;;;;14.20;10.35;;;8.90;35.70;;;;;;4999081;28;35797;-75
2022/04/30 01:05:18;;;;;;;15.45;10.20;;;8.90;35.70;;;;;;4997163;28;34213;-75
2022/04/30 01:07:44;;;;;;;12.68;9.48;;;8.90;35.70;;;;;;4999941;28;34346;-75
2022/04/30 01:10:10;;;;;;;14.27;9.25;;;8.90;35.80;;;;;;4978947;28;34323;-76
2022/04/30 01:12:37;;;;;;;17.50;9.65;;;8.80;35.90;;;;;;4985801;28;35730;-75
2022/04/30 01:15:05;;;;;;;14.73;9.50;;;8.80;36.10;;;;;;4999957;28;34035;-75
2022/04/30 01:17:31;;;;;;;14.15;9.63;;;8.70;36.00;;;;;;4970442;28;34175;-75
2022/04/30 01:19:59;;;;;;;15.15;9.52;;;8.70;36.00;;;;;;4998124;28;34342;-75
2022/04/30 01:22:56;;;;;;;14.93;9.63;;;8.70;36.00;;;;;;4988204;28;35863;-75
2022/04/30 01:25:22;;;;;;;14.88;10.00;;;8.60;38.00;;;;;;4999753;28;34242;-75
2022/04/30 01:27:49;;;;;;;13.68;9.43;;;8.50;35.90;;;;;;4994540;28;34457;-75
2022/04/30 01:30:16;;;;;;;15.23;9.38;;;8.50;35.90;;;;;;4996686;28;34375;-75
2022/04/30 01:38:07;;;;;;;15.35;9.95;;;8.30;36.20;;;;;;4981108;28;34136;-75
2022/04/30 01:40:33;;;;;;;13.77;9.02;;;8.30;36.20;;;;;;4977729;28;35356;-75
2022/04/30 01:43:02;;;;;;;16.42;9.23;;;8.30;36.20;;;;;;4995642;28;36324;-75
2022/04/30 01:45:29;;;;;;;12.48;8.95;;;8.30;36.20;;;;;;5003412;28;34474;-76
2022/04/30 01:47:58;;;;;;;12.80;8.43;;;8.20;36.20;;;;;;4987085;28;34134;-75
2022/04/30 01:50:24;;;;;;;14.30;9.07;;;8.20;36.30;;;;;;4999154;28;34335;-75
2022/04/30 01:52:50;;;;;;;12.98;8.85;;;8.20;36.20;;;;;;4994060;28;35931;-75
2022/04/30 01:55:17;;;;;;;15.00;10.02;;;8.20;36.30;;;;;;4983633;28;34172;-76
2022/04/30 01:57:43;;;;;;;14.63;9.75;;;8.10;36.30;;;;;;4974425;28;34252;-75
2022/04/30 02:00:12;;;;;;;12.95;8.38;;;8.10;36.60;;;;;;4968034;28;34407;-75
2022/04/30 02:02:41;;;;;;;13.95;10.15;;;8.10;36.80;;;;;;4985247;28;35318;-75
2022/04/30 02:05:08;;;;;;;14.65;10.13;;;8.00;37.50;;;;;;4960546;28;34374;-75
2022/04/30 02:07:39;;;;;;;14.05;9.13;;;8.00;36.80;;;;;;4986744;28;34154;-75
2022/04/30 02:10:07;;;;;;;15.27;10.23;;;8.00;36.90;;;;;;4986026;28;35033;-75
2022/04/30 02:12:34;;;;;;;13.20;9.40;;;8.00;36.90;;;;;;4986574;28;35525;-75
2022/04/30 02:15:01;;;;;;;13.25;9.43;;;7.90;37.00;;;;;;4978937;28;34245;-75
2022/04/30 02:17:29;;;;;;;18.60;11.30;;;8.00;37.00;;;;;;4984579;28;34762;-75
2022/04/30 02:22:40;;;;;;;15.45;10.35;;;8.00;36.80;;;;;;4969395;28;34799;-75
2022/04/30 02:25:09;;;;;;;19.52;9.90;;;8.00;36.80;;;;;;4983473;28;34110;-75
2022/04/30 02:27:45;;;;;;;14.85;9.95;;;8.00;36.90;;;;;;4967069;28;34090;-75
2022/04/30 02:30:14;;;;;;;15.13;9.75;;;8.00;37.70;;;;;;4951207;28;34434;-75
2022/04/30 02:32:42;;;;;;;16.15;9.77;;;8.00;36.80;;;;;;4984257;28;34353;-75
2022/04/30 02:35:09;;;;;;;14.05;8.82;;;8.00;36.60;;;;;;4978097;28;34126;-75
2022/04/30 02:37:35;;;;;;;15.23;9.18;;;7.90;36.80;;;;;;5003658;28;34289;-75
2022/04/30 02:40:03;;;;;;;14.90;9.27;;;7.90;36.80;;;;;;4986314;28;34461;-75
2022/04/30 02:42:29;;;;;;;12.45;9.18;;;7.90;36.70;;;;;;4994382;28;34439;-75
2022/04/30 02:44:55;;;;;;;13.93;9.65;;;7.80;36.80;;;;;;4986282;28;34056;-75
2022/04/30 02:47:21;;;;;;;13.88;9.75;;;7.80;36.70;;;;;;5000268;28;34018;-75
2022/04/30 02:49:47;;;;;;;13.75;8.98;;;7.70;36.70;;;;;;5002728;28;34147;-75
2022/04/30 02:52:13;;;;;;;13.65;9.23;;;7.70;36.80;;;;;;5004109;28;34270;-75
2022/04/30 02:54:39;;;;;;;12.15;9.40;;;7.60;36.70;;;;;;5003069;28;34174;-75
2022/04/30 02:57:05;;;;;;;15.25;9.90;;;7.60;36.80;;;;;;5003159;28;34410;-75
2022/04/30 03:02:12;;;;;;;11.38;8.60;;;7.50;36.80;;;;;;4993536;28;34720;-75
2022/04/30 03:04:38;;;;;;;11.43;8.60;;;7.50;36.70;;;;;;4967079;28;34100;-75
2022/04/30 03:07:04;;;;;;;11.80;8.63;;;7.40;36.70;;;;;;4980926;28;34226;-75
2022/04/30 03:09:31;;;;;;;11.75;8.23;;;7.40;36.70;;;;;;4986213;28;34156;-75
2022/04/30 03:11:58;;;;;;;14.13;9.30;;;7.30;36.90;;;;;;5002161;28;35950;-75
2022/04/30 03:14:24;;;;;;;14.48;8.60;;;7.30;36.80;;;;;;5003823;28;34039;-75
2022/04/30 03:22:13;;;;;;;13.57;8.80;;;7.10;36.80;;;;;;4997684;28;34696;-75
2022/04/30 03:24:39;;;;;;;14.45;9.02;;;7.00;36.80;;;;;;4991498;28;34215;-75
2022/04/30 03:27:05;;;;;;;13.35;9.45;;;7.00;36.90;;;;;;4990371;28;34320;-75
2022/04/30 03:29:31;;;;;;;15.90;9.85;;;6.90;36.80;;;;;;4989884;28;34253;-75
2022/04/30 03:31:58;;;;;;;15.00;9.90;;;6.90;37.00;;;;;;4992913;28;34293;-75
2022/04/30 03:34:24;;;;;;;13.35;9.88;;;6.80;36.80;;;;;;4988177;28;34091;-75
2022/04/30 03:36:50;;;;;;;14.48;9.43;;;6.80;37.00;;;;;;4986697;28;34331;-75
2022/04/30 03:39:16;;;;;;;13.77;9.57;;;6.80;36.90;;;;;;4970137;28;34404;-75
2022/04/30 03:41:42;;;;;;;12.60;9.52;;;6.80;37.00;;;;;;4982973;28;35659;-75
2022/04/30 03:44:07;;;;;;;14.02;9.68;;;6.70;37.00;;;;;;4991084;28;34323;-75
2022/04/30 03:46:34;;;;;;;13.90;8.57;;;6.70;37.00;;;;;;4986826;28;34268;-75
2022/04/30 03:49:00;;;;;;;16.52;8.90;;;6.70;37.10;;;;;;4988520;28;34115;-75
2022/04/30 03:51:26;;;;;;;14.65;10.38;;;6.70;37.30;;;;;;4989861;28;35990;-75
2022/04/30 03:53:53;;;;;;;13.43;9.20;;;6.70;37.40;;;;;;5007385;28;34156;-75
2022/04/30 03:56:20;;;;;;;18.98;10.77;;;6.70;37.40;;;;;;4983888;28;34310;-75
2022/04/30 03:58:47;;;;;;;15.52;10.23;;;6.80;37.40;;;;;;4990776;28;34578;-75
2022/04/30 04:01:14;;;;;;;16.25;10.85;;;6.80;37.40;;;;;;4988371;28;35833;-75
2022/04/30 04:03:42;;;;;;;16.55;11.52;;;6.80;37.40;;;;;;4993784;28;34233;-75
2022/04/30 04:06:08;;;;;;;15.77;10.27;;;6.90;37.50;;;;;;5002769;28;34312;-75
2022/04/30 04:08:35;;;;;;;14.30;10.00;;;6.90;37.50;;;;;;4974918;28;34333;-75
2022/04/30 04:11:02;;;;;;;14.75;10.07;;;6.90;37.40;;;;;;4974517;28;36386;-75
2022/04/30 04:18:51;;;;;;;17.38;10.35;;;6.80;37.40;;;;;;4980584;28;34241;-75
2022/04/30 04:21:18;;;;;;;14.90;10.18;;;6.70;37.50;;;;;;5006019;28;34336;-75
2022/04/30 04:26:27;;;;;;;13.73;9.45;;;6.70;37.60;;;;;;5006424;28;34176;-75
2022/04/30 04:28:52;;;;;;;15.57;10.60;;;6.60;37.60;;;;;;4987961;28;34151;-75
2022/04/30 04:31:22;;;;;;;14.93;9.77;;;6.60;37.60;;;;;;4989707;28;35422;-75
2022/04/30 04:33:48;;;;;;;14.93;9.32;;;6.60;37.50;;;;;;5006811;28;34143;-75
2022/04/30 04:36:16;;;;;;;13.25;8.98;;;6.60;37.40;;;;;;4988817;28;33809;-74
2022/04/30 04:38:42;;;;;;;15.00;10.80;;;6.60;37.40;;;;;;5006959;28;34123;-75
2022/04/30 04:41:08;;;;;;;14.70;10.40;;;6.60;37.40;;;;;;4988335;28;35820;-75
2022/04/30 04:43:34;;;;;;;14.68;10.52;;;6.60;37.40;;;;;;4988269;28;34229;-75
2022/04/30 04:46:02;;;;;;;15.13;10.45;;;6.60;37.40;;;;;;4988800;28;34198;-75
2022/04/30 04:48:29;;;;;;;15.30;10.18;;;6.60;37.50;;;;;;5005775;28;34064;-75
2022/04/30 04:50:56;;;;;;;16.50;10.02;;;6.60;37.40;;;;;;4985556;28;35715;-75
2022/04/30 04:53:22;;;;;;;15.45;10.23;;;6.60;37.40;;;;;;4988394;28;34313;-75
2022/04/30 04:55:48;;;;;;;17.63;11.60;;;6.60;37.60;;;;;;5004063;28;34162;-75
2022/04/30 04:58:14;;;;;;;21.02;11.95;;;6.60;37.50;;;;;;4971602;28;34215;-75
2022/04/30 05:00:40;;;;;;;18.05;11.52;;;6.70;37.60;;;;;;4996984;28;34150;-74
2022/04/30 05:03:07;;;;;;;19.98;12.57;;;6.80;37.40;;;;;;4989361;28;34110;-75
2022/04/30 05:05:33;;;;;;;17.80;11.85;;;6.90;37.50;;;;;;4987373;28;34413;-75
2022/04/30 05:07:59;;;;;;;17.73;11.45;;;7.00;37.40;;;;;;4988536;28;34206;-74
2022/04/30 05:10:25;;;;;;;17.95;12.32;;;7.00;37.30;;;;;;4987726;28;36201;-74
2022/04/30 05:12:51;;;;;;;18.75;12.00;;;7.10;37.40;;;;;;4988117;28;34284;-74
2022/04/30 05:15:17;;;;;;;21.15;13.85;;;7.20;37.40;;;;;;4987819;28;34172;-74
2022/04/30 05:17:42;;;;;;;24.88;15.23;;;7.30;37.80;;;;;;4988710;28;34080;-74
2022/04/30 05:20:09;;;;;;;22.67;14.40;;;7.40;37.90;;;;;;4993147;28;35469;-74
2022/04/30 05:22:35;;;;;;;23.17;15.00;;;7.50;38.20;;;;;;4985919;28;34273;-74
2022/04/30 05:25:00;;;;;;;21.48;14.57;;;7.60;37.70;;;;;;4993622;28;34066;-75
2022/04/30 05:27:26;;;;;;;24.38;15.95;;;7.70;37.80;;;;;;4988120;28;34135;-74
2022/04/30 05:29:52;;;;;;;26.35;15.75;;;7.80;38.30;;;;;;5002645;28;35162;-75
2022/04/30 05:32:18;;;;;;;28.38;16.05;;;7.90;38.10;;;;;;4987206;28;34283;-75
2022/04/30 05:34:44;;;;;;;25.70;16.33;;;8.00;37.90;;;;;;4987629;28;34215;-75
2022/04/30 05:37:10;;;;;;;27.15;16.08;;;8.10;37.90;;;;;;4987364;28;34274;-75
2022/04/30 05:39:36;;;;;;;28.42;16.92;;;8.30;38.00;;;;;;5002981;28;34847;-74
2022/04/30 05:42:02;;;;;;;30.63;16.55;;;8.40;38.00;;;;;;4987133;28;34109;-75
2022/04/30 05:44:28;;;;;;;29.80;15.75;;;8.60;37.90;;;;;;5003033;28;34218;-75
2022/04/30 05:46:54;;;;;;;29.75;16.63;;;8.70;37.90;;;;;;4986998;28;34405;-75
2022/04/30 05:49:19;;;;;;;30.20;17.45;;;8.80;37.80;;;;;;4986827;28;36355;-75
2022/04/30 05:51:45;;;;;;;29.58;17.48;;;8.90;37.80;;;;;;5005026;28;34082;-75
2022/04/30 05:54:11;;;;;;;31.02;17.55;;;9.10;37.70;;;;;;4986861;28;34439;-75
2022/04/30 05:56:37;;;;;;;25.23;17.10;;;9.20;37.60;;;;;;4986887;28;34157;-75
2022/04/30 05:59:03;;;;;;;28.05;17.52;;;9.20;37.80;;;;;;4986364;28;36736;-75
2022/04/30 06:01:30;;;;;;;26.25;15.80;;;9.40;37.40;;;;;;4986806;28;34390;-75
2022/04/30 06:03:56;;;;;;;27.15;16.10;;;9.50;37.70;;;;;;5004358;28;34158;-75
2022/04/30 06:06:22;;;;;;;25.83;16.35;;;9.60;37.00;;;;;;5002923;28;34212;-75
2022/04/30 06:08:48;;;;;;;24.05;15.77;;;9.70;36.90;;;;;;4986220;28;36751;-75
2022/04/30 06:11:14;;;;;;;24.42;15.95;;;9.80;36.70;;;;;;4986926;28;34110;-75
2022/04/30 06:13:40;;;;;;;27.73;15.35;;;10.00;36.70;;;;;;4997508;28;34062;-75
2022/04/30 06:16:06;;;;;;;25.65;15.93;;;10.00;36.60;;;;;;4981127;28;34477;-75
2022/04/30 06:18:32;;;;;;;22.90;15.38;;;10.20;36.50;;;;;;4953378;28;35480;-76
2022/04/30 06:21:03;;;;;;;29.00;17.02;;;10.30;36.70;;;;;;5003378;28;34220;-76
2022/04/30 06:23:29;;;;;;;24.40;15.77;;;10.40;36.60;;;;;;4986442;28;34509;-76
2022/04/30 06:25:55;;;;;;;26.30;16.58;;;10.50;36.50;;;;;;4986429;28;34372;-76
2022/04/30 06:28:20;;;;;;;25.05;16.85;;;10.60;36.30;;;;;;4996603;28;36497;-76
2022/04/30 06:30:46;;;;;;;26.10;15.98;;;10.70;36.40;;;;;;4986189;28;34106;-77
2022/04/30 06:33:12;;;;;;;25.50;16.08;;;10.80;36.30;;;;;;4980287;28;34187;-76
2022/04/30 06:35:39;;;;;;;25.50;15.95;;;10.80;36.20;;;;;;5000262;28;34158;-76
2022/04/30 06:38:06;;;;;;;27.33;16.23;;;10.90;36.10;;;;;;4999151;28;35896;-76
2022/04/30 06:40:32;;;;;;;19.08;13.65;;;11.00;36.00;;;;;;4998372;28;34194;-77
2022/04/30 06:43:00;;;;;;;24.95;15.07;;;10.90;35.90;;;;;;4979971;28;34627;-77
2022/04/30 06:45:26;;;;;;;27.42;15.65;;;11.00;35.70;;;;;;5002433;28;34278;-77
2022/04/30 06:47:52;;;;;;;21.40;14.55;;;11.00;35.80;;;;;;5001342;28;36008;-76
2022/04/30 06:50:18;;;;;;;21.55;14.38;;;11.10;35.90;;;;;;4999327;28;34295;-77
2022/04/30 06:58:07;;;;;;;21.90;14.43;;;11.40;35.40;;;;;;4999846;28;34699;-77
2022/04/30 07:03:23;;;;;;;20.85;14.15;;;11.70;35.00;;;;;;4976794;28;34573;-75
2022/04/30 07:05:50;;;;;;;21.48;14.77;;;11.70;34.80;;;;;;5004619;28;34300;-76
2022/04/30 07:08:16;;;;;;;23.30;14.48;;;11.80;34.60;;;;;;4998703;28;35612;-76
2022/04/30 07:10:42;;;;;;;21.15;12.93;;;11.90;34.30;;;;;;5002693;28;34264;-75
2022/04/30 07:13:08;;;;;;;22.55;13.10;;;11.90;34.20;;;;;;5001481;28;34703;-76
2022/04/30 07:15:34;;;;;;;24.25;13.73;;;11.90;34.00;;;;;;4986662;28;34196;-76
2022/04/30 07:18:00;;;;;;;20.05;13.57;;;12.00;33.90;;;;;;4983239;28;35588;-77
2022/04/30 07:20:27;;;;;;;21.65;13.13;;;12.00;33.80;;;;;;4987071;28;34415;-77
2022/04/30 07:22:54;;;;;;;21.60;13.38;;;12.10;33.80;;;;;;4984238;28;34166;-77
2022/04/30 07:25:20;;;;;;;24.20;13.52;;;12.10;33.50;;;;;;4999048;28;34222;-76
2022/04/30 07:27:46;;;;;;;24.02;13.48;;;12.30;33.50;;;;;;4983929;28;36626;-76
2022/04/30 07:30:12;;;;;;;19.55;12.95;;;12.30;33.30;;;;;;4998813;28;34272;-78
2022/04/30 07:32:58;;;;;;;20.30;13.65;;;12.50;33.40;;;;;;4978279;28;34167;-77
2022/04/30 07:35:24;;;;;;;23.48;13.57;;;12.60;32.60;;;;;;4982390;28;34222;-77
2022/04/30 07:37:50;;;;;;;20.50;13.63;;;12.60;32.40;;;;;;5005877;28;34170;-78
2022/04/30 07:40:16;;;;;;;20.85;13.00;;;12.60;32.20;;;;;;5005536;28;34149;-77
2022/04/30 07:42:42;;;;;;;21.65;11.85;;;12.70;32.00;;;;;;4984688;28;34080;-76
2022/04/30 07:45:09;;;;;;;18.33;13.35;;;12.70;31.60;;;;;;4996642;28;34843;-77
2022/04/30 07:47:35;;;;;;;17.85;12.70;;;12.70;31.80;;;;;;4985846;28;35663;-78
2022/04/30 07:50:01;;;;;;;21.42;12.80;;;12.70;31.40;;;;;;5005060;28;34341;-78
2022/04/30 07:52:27;;;;;;;18.50;12.23;;;12.80;31.50;;;;;;4983360;28;34323;-77
2022/04/30 07:54:53;;;;;;;20.25;12.38;;;12.80;31.00;;;;;;4974831;28;34301;-78
2022/04/30 07:57:20;;;;;;;20.42;12.40;;;12.80;31.10;;;;;;4999987;28;34628;-77
2022/04/30 07:59:46;;;;;;;18.55;12.35;;;12.70;31.10;;;;;;5005099;28;34126;-78
2022/04/30 08:02:12;;;;;;;17.55;11.80;;;12.80;31.00;;;;;;4983797;28;34091;-78
2022/04/30 08:04:38;;;;;;;19.05;12.00;;;12.80;31.00;;;;;;5001987;28;34111;-79
2022/04/30 08:07:04;;;;;;;17.02;12.10;;;12.80;30.90;;;;;;4981357;28;34191;-78
2022/04/30 08:09:30;;;;;;;19.95;11.93;;;12.80;30.70;;;;;;4997074;28;34197;-78
2022/04/30 08:11:56;;;;;;;20.40;12.80;;;12.80;30.70;;;;;;4979246;28;34293;-78
2022/04/30 08:14:22;;;;;;;17.50;11.50;;;12.90;30.70;;;;;;5002613;28;34357;-77
2022/04/30 08:16:48;;;;;;;17.73;11.65;;;13.00;30.40;;;;;;4985399;28;35671;-78
2022/04/30 08:19:15;;;;;;;16.52;12.27;;;13.10;29.90;;;;;;4975704;28;34479;-78
2022/04/30 08:21:42;;;;;;;22.05;11.90;;;13.40;29.20;;;;;;4976095;28;34424;-78
2022/04/30 08:24:08;;;;;;;16.08;11.40;;;13.50;28.80;;;;;;4990737;28;34465;-79
2022/04/30 08:26:37;;;;;;;16.92;11.43;;;13.60;28.30;;;;;;4985064;28;36861;-80
2022/04/30 08:29:03;;;;;;;15.68;10.88;;;13.70;28.00;;;;;;4979467;28;34358;-79
2022/04/30 08:31:29;;;;;;;15.65;10.40;;;14.00;27.90;;;;;;4979400;28;34762;-79
2022/04/30 08:33:56;;;;;;;14.63;10.40;;;14.30;27.20;;;;;;4968110;28;34335;-79
2022/04/30 08:36:22;;;;;;;14.50;10.65;;;14.50;26.40;;;;;;4987824;28;35944;-79
2022/04/30 08:38:47;;;;;;;17.45;10.80;;;14.90;26.20;;;;;;4972417;28;34160;-78
2022/04/30 08:41:16;;;;;;;16.00;9.95;;;15.10;25.70;;;;;;4953293;28;34150;-79
2022/04/30 08:43:47;;;;;;;16.85;10.63;;;15.40;25.10;;;;;;4972072;28;34792;-81
2022/04/30 08:46:18;;;;;;;16.17;10.13;;;15.70;23.70;;;;;;4971750;28;36801;-79
2022/04/30 08:48:45;;;;;;;13.35;9.98;;;15.90;24.20;;;;;;4981534;28;34373;-77
2022/04/30 08:51:11;;;;;;;15.10;10.40;;;16.00;23.90;;;;;;4987537;28;33750;-79
2022/04/30 08:53:38;;;;;;;15.80;9.82;;;16.20;23.10;;;;;;4990521;28;34168;-79
2022/04/30 08:56:08;;;;;;;14.43;9.57;;;16.20;22.90;;;;;;4982455;28;36084;-79
2022/04/30 08:58:34;;;;;;;11.73;8.45;;;16.40;20.60;;;;;;4972507;28;34293;-78
2022/04/30 09:01:03;;;;;;;12.82;8.80;;;16.40;22.20;;;;;;4990173;28;33760;-78
2022/04/30 09:03:34;;;;;;;14.32;8.55;;;16.30;21.60;;;;;;4971678;28;34158;-78
2022/04/30 09:06:00;;;;;;;17.10;8.75;;;16.30;21.00;;;;;;4973243;28;36154;-79
2022/04/30 09:08:26;;;;;;;12.07;8.15;;;16.10;22.10;;;;;;4988697;28;34088;-78
2022/04/30 09:11:03;;;;;;;12.55;7.90;;;16.10;21.90;;;;;;4988811;28;34260;-79
2022/04/30 09:13:29;;;;;;;16.80;8.43;;;16.30;21.80;;;;;;4988070;28;34177;-80
2022/04/30 09:15:56;;;;;;;15.40;9.27;;;16.60;21.40;;;;;;4972533;28;36601;-79
2022/04/30 09:18:22;;;;;;;12.43;8.60;;;16.80;20.90;;;;;;4969951;28;34151;-79
2022/04/30 09:20:50;;;;;;;15.60;9.00;;;16.90;21.00;;;;;;4969296;28;34242;-79
2022/04/30 09:23:27;;;;;;;16.48;9.23;;;17.00;19.80;;;;;;4975034;28;34417;-78
2022/04/30 09:25:56;;;;;;;15.75;8.57;;;17.00;15.60;;;;;;4993387;28;34744;-79
2022/04/30 09:28:30;;;;;;;12.93;7.60;;;17.10;19.60;;;;;;4969641;28;34272;-78
2022/04/30 09:31:13;;;;;;;10.45;8.07;;;17.40;18.30;;;;;;5002680;28;34108;-78
2022/04/30 09:33:54;;;;;;;9.52;7.72;;;17.80;15.70;;;;;;4980801;28;34375;-78
2022/04/30 09:39:18;;;;;;;12.95;7.88;;;18.30;18.40;;;;;;5004781;28;34318;-79
2022/04/30 09:41:44;;;;;;;11.30;8.40;;;18.40;16.50;;;;;;4986475;28;34432;-78
2022/04/30 09:44:16;;;;;;;10.82;7.45;;;18.40;18.40;;;;;;5005421;28;34401;-79
2022/04/30 09:46:42;;;;;;;10.85;7.18;;;18.20;18.10;;;;;;4979572;28;36543;-79
2022/04/30 09:54:36;;;;;;;9.77;7.05;;;17.70;17.80;;;;;;4988230;28;34280;-78
2022/04/30 09:57:04;;;;;;;9.20;6.88;;;17.40;17.70;;;;;;4987856;28;35800;-78
2022/04/30 09:59:32;;;;;;;12.05;7.55;;;17.10;18.10;;;;;;4985023;28;34277;-78
2022/04/30 10:02:03;;;;;;;10.23;7.07;;;16.90;18.40;;;;;;5004050;28;34304;-78
2022/04/30 10:04:30;;;;;;;8.50;6.75;;;16.90;17.50;;;;;;5002856;28;34328;-78
2022/04/30 10:07:00;;;;;;;9.15;5.72;;;17.30;17.60;;;;;;5003558;28;36323;-77
2022/04/30 10:09:34;;;;;;;8.60;6.68;;;17.60;16.90;;;;;;5003979;28;34510;-79
2022/04/30 10:12:19;;;;;;;8.38;6.63;;;18.00;14.90;;;;;;4984836;28;34151;-79
2022/04/30 10:14:58;;;;;;;8.35;6.30;;;18.50;11.40;;;;;;4983673;28;34413;-79
2022/04/30 10:17:26;;;;;;;8.50;5.80;;;18.70;12.10;;;;;;4984174;28;35667;-79
2022/04/30 10:20:18;;;;;;;10.63;6.65;;;18.80;15.20;;;;;;5000069;28;34319;-77
2022/04/30 10:23:00;;;;;;;7.57;5.93;;;18.90;10.20;;;;;;4993382;28;34060;-78
2022/04/30 10:25:36;;;;;;;7.95;5.72;;;19.10;12.00;;;;;;4978596;28;34007;-78
2022/04/30 10:28:17;;;;;;;7.00;5.45;;;19.40;12.40;;;;;;4979601;28;34510;-78
2022/04/30 10:30:46;;;;;;;7.25;5.55;;;19.70;13.40;;;;;;4962334;28;34369;-78
2022/04/30 10:33:12;;;;;;;5.35;4.50;;;19.90;13.60;;;;;;4984875;28;34118;-80
2022/04/30 10:35:43;;;;;;;6.35;5.07;;;20.10;13.90;;;;;;5008488;28;34578;-79
2022/04/30 10:38:15;;;;;;;6.40;5.00;;;20.30;11.50;;;;;;4975289;28;36102;-79
2022/04/30 10:40:48;;;;;;;6.72;5.35;;;20.40;12.20;;;;;;4996683;28;34316;-78
2022/04/30 10:43:17;;;;;;;6.60;4.82;;;20.50;11.20;;;;;;5007644;28;34279;-80
2022/04/30 10:45:42;;;;;;;8.23;5.38;;;20.20;11.40;;;;;;4989280;28;34305;-79
2022/04/30 10:48:09;;;;;;;6.63;5.53;;;20.10;12.40;;;;;;5007036;28;35462;-79
2022/04/30 10:50:35;;;;;;;5.93;5.10;;;20.10;12.20;;;;;;4974672;28;34240;-78
2022/04/30 10:53:02;;;;;;;6.70;5.40;;;19.80;12.30;;;;;;5006875;28;34083;-78
2022/04/30 10:55:29;;;;;;;5.35;4.47;;;19.40;12.40;;;;;;5005319;28;34295;-78
2022/04/30 10:57:55;;;;;;;6.18;4.70;;;19.00;12.50;;;;;;4974811;28;36320;-79
2022/04/30 11:00:21;;;;;;;5.45;4.60;;;18.60;12.50;;;;;;4973568;28;34143;-78
2022/04/30 11:02:48;;;;;;;5.35;4.80;;;18.60;12.40;;;;;;5007224;28;34063;-78
2022/04/30 11:05:22;;;;;;;5.72;5.03;;;18.90;11.90;;;;;;4991218;28;34490;-78
2022/04/30 11:07:49;;;;;;;6.10;4.93;;;19.20;9.50;;;;;;4983871;28;36694;-78
2022/04/30 11:10:15;;;;;;;4.70;4.25;;;19.40;11.70;;;;;;5006928;28;34357;-78
2022/04/30 11:12:41;;;;;;;5.65;4.38;;;19.40;11.20;;;;;;5007897;28;34149;-79
2022/04/30 11:15:10;;;;;;;5.47;3.78;;;19.40;11.30;;;;;;4978198;28;34011;-79
2022/04/30 11:17:44;;;;;;;4.90;3.85;;;19.20;10.80;;;;;;4971213;28;36517;-79
2022/04/30 11:20:11;;;;;;;6.32;3.75;;;19.00;7.60;;;;;;4976676;28;34185;-79
2022/04/30 11:22:38;;;;;;;4.20;3.67;;;19.10;10.90;;;;;;4972485;28;34158;-79
2022/04/30 11:25:04;;;;;;;4.00;3.47;;;19.20;10.80;;;;;;4980397;28;34489;-79
2022/04/30 11:27:31;;;;;;;2.80;2.60;;;19.30;10.70;;;;;;4992549;28;35512;-78
2022/04/30 11:29:58;;;;;;;6.07;3.13;;;19.10;10.30;;;;;;4991173;28;34072;-78
2022/04/30 11:32:29;;;;;;;3.72;3.30;;;18.80;10.40;;;;;;4990569;28;34171;-79
2022/04/30 11:35:00;;;;;;;4.93;3.38;;;18.50;10.70;;;;;;4975330;28;34285;-79
2022/04/30 11:37:26;;;;;;;6.68;3.45;;;18.60;9.50;;;;;;4974248;28;36348;-79
2022/04/30 11:39:53;;;;;;;4.15;3.72;;;18.70;10.40;;;;;;4990713;28;34072;-78
2022/04/30 11:42:25;;;;;;;3.45;3.10;;;18.90;10.00;;;;;;5005865;28;34278;-79
2022/04/30 11:44:54;;;;;;;4.93;3.28;;;19.00;7.90;;;;;;4982718;28;34460;-78
2022/04/30 11:47:21;;;;;;;3.22;2.88;;;19.10;7.80;;;;;;4976194;28;35844;-79
2022/04/30 11:49:48;;;;;;;3.60;3.25;;;19.20;9.00;;;;;;5006252;28;34480;-80
2022/04/30 11:52:15;;;;;;;3.13;2.83;;;19.30;9.30;;;;;;4987934;28;34234;-77
2022/04/30 11:54:41;;;;;;;5.13;2.70;;;19.20;9.20;;;;;;4987202;28;34291;-78
2022/04/30 11:57:09;;;;;;;2.88;2.65;;;19.20;8.90;;;;;;4984299;28;35628;-77
2022/04/30 11:59:38;;;;;;;3.72;2.80;;;19.10;8.50;;;;;;4986274;28;34312;-80
2022/04/30 12:02:08;;;;;;;3.33;2.58;;;19.10;7.00;;;;;;4967563;28;34223;-79
2022/04/30 12:04:36;;;;;;;3.00;2.63;;;19.20;8.50;;;;;;4963451;28;34323;-79
2022/04/30 12:07:05;;;;;;;2.88;2.63;;;19.30;8.30;;;;;;4981506;28;35623;-78
2022/04/30 12:09:33;;;;;;;4.13;2.88;;;19.30;6.70;;;;;;4978904;28;35042;-79
2022/04/30 12:12:00;;;;;;;3.47;2.80;;;19.40;7.90;;;;;;4998073;28;34660;-77
2022/04/30 12:14:27;;;;;;;3.03;2.72;;;19.70;7.90;;;;;;5004796;28;34601;-78
2022/04/30 12:16:54;;;;;;;3.60;2.92;;;19.90;8.10;;;;;;5000740;28;35986;-80
2022/04/30 12:25:09;;;;;;;3.40;3.10;;;20.10;4.30;;;;;;4982383;28;34375;-78
2022/04/30 12:27:37;;;;;;;3.20;2.90;;;20.20;7.50;;;;;;5001488;28;36642;-78
2022/04/30 12:30:12;;;;;;;2.88;2.30;;;20.40;7.60;;;;;;4979358;28;34154;-78
2022/04/30 12:32:58;;;;;;;3.95;3.25;;;20.50;5.60;;;;;;4969291;28;34185;-77
2022/04/30 12:35:27;;;;;;;4.10;2.88;;;20.60;2.20;;;;;;4979319;28;34299;-78
2022/04/30 12:38:18;;;;;;;3.10;2.80;;;20.50;6.60;;;;;;5001026;28;35564;-77
2022/04/30 12:40:47;;;;;;;4.38;2.60;;;20.70;2.50;;;;;;4961785;28;34312;-77
2022/04/30 12:43:13;;;;;;;3.47;3.17;;;20.80;6.30;;;;;;4977686;28;34285;-79
2022/04/30 12:45:43;;;;;;;3.85;3.20;;;20.80;6.70;;;;;;4996683;28;34270;-77
2022/04/30 12:48:10;;;;;;;3.47;3.13;;;20.80;4.20;;;;;;4982571;28;35794;-79
2022/04/30 12:50:37;;;;;;;3.58;2.80;;;20.70;6.60;;;;;;4998379;28;34383;-77
2022/04/30 12:53:03;;;;;;;3.58;2.97;;;20.60;6.40;;;;;;4980887;28;34809;-79
2022/04/30 12:55:30;;;;;;;3.67;2.92;;;20.60;6.80;;;;;;4999237;28;34391;-78
2022/04/30 12:57:56;;;;;;;4.20;3.17;;;20.70;6.60;;;;;;4992994;28;35677;-77
2022/04/30 13:00:23;;;;;;;3.50;2.97;;;20.80;6.40;;;;;;4971636;28;34278;-78
2022/04/30 13:02:51;;;;;;;2.60;2.40;;;20.90;6.50;;;;;;4985597;28;34149;-77
2022/04/30 13:05:17;;;;;;;3.25;2.88;;;21.00;6.40;;;;;;4973854;28;34381;-78
2022/04/30 13:07:44;;;;;;;4.88;2.92;;;21.10;6.20;;;;;;4994956;28;35953;-79
2022/04/30 13:15:34;;;;;;;3.40;2.85;;;21.40;6.00;;;;;;4991356;28;34510;-78
2022/04/30 13:18:01;;;;;;;4.57;2.47;;;21.40;6.00;;;;;;4979394;28;35906;-79
2022/04/30 13:20:28;;;;;;;2.65;2.45;;;21.50;5.80;;;;;;4996099;28;34075;-80
2022/04/30 13:22:56;;;;;;;2.35;2.20;;;21.50;5.70;;;;;;5003293;28;34560;-79
2022/04/30 13:25:23;;;;;;;2.88;2.20;;;21.40;5.50;;;;;;4979752;28;34284;-79
2022/04/30 13:27:50;;;;;;;2.65;2.45;;;21.40;5.20;;;;;;4954527;28;36333;-78
2022/04/30 13:30:18;;;;;;;2.65;2.38;;;21.40;5.40;;;;;;4988409;28;34174;-77
2022/04/30 13:32:46;;;;;;;3.28;2.30;;;21.30;5.30;;;;;;4976727;28;34177;-79
2022/04/30 13:35:13;;;;;;;2.78;2.58;;;21.30;5.00;;;;;;4979361;28;34322;-78